createdAt,value
2018-05-09T00:01:21.213Z,35.57
2018-05-09T00:03:51.032Z,34.67
2018-05-09T00:06:22.481Z,32.87
2018-05-09T00:08:54.566Z,35.20
2018-05-09T00:11:24.329Z,34.43
2018-05-09T00:13:54.048Z,33.60
2018-05-09T00:16:23.811Z,34.57
2018-05-09T00:18:53.529Z,34.27
2018-05-09T00:21:23.283Z,33.90
2018-05-09T00:23:53.051Z,35.23
2018-05-09T00:26:22.812Z,34.83
2018-05-09T00:28:53.538Z,32.07
2018-05-09T00:31:23.311Z,33.03
2018-05-09T00:33:53.047Z,30.53
2018-05-09T00:36:22.775Z,31.93
2018-05-09T00:38:52.555Z,32.80
2018-05-09T00:41:22.778Z,31.30
2018-05-09T00:43:52.688Z,31.60
2018-05-09T00:46:22.460Z,31.40
2018-05-09T00:48:52.290Z,31.23
2018-05-09T00:51:22.023Z,28.80
2018-05-09T00:53:51.950Z,32.20
2018-05-09T00:56:21.701Z,29.73
2018-05-09T00:58:52.217Z,29.47
2018-05-09T01:01:22.120Z,28.63
2018-05-09T01:03:51.883Z,28.47
2018-05-09T01:06:21.617Z,28.40
2018-05-09T01:08:51.390Z,28.07
2018-05-09T01:11:21.281Z,27.57
2018-05-09T01:13:51.772Z,27.67
2018-05-09T01:16:21.505Z,28.30
2018-05-09T01:18:51.264Z,27.80
2018-05-09T01:21:21.024Z,27.17
2018-05-09T01:23:50.936Z,25.57
2018-05-09T01:26:20.674Z,26.00
2018-05-09T01:28:51.186Z,26.63
2018-05-09T01:31:21.872Z,27.53
2018-05-09T01:33:52.361Z,25.23
2018-05-09T01:36:22.870Z,26.73
2018-05-09T01:38:52.618Z,27.57
2018-05-09T01:41:22.402Z,26.83
2018-05-09T01:43:52.914Z,26.30
2018-05-09T01:46:22.666Z,26.77
2018-05-09T01:48:52.438Z,27.23
2018-05-09T01:51:22.145Z,26.90
2018-05-09T01:53:52.092Z,27.37
2018-05-09T01:56:22.619Z,27.20
2018-05-09T01:58:53.151Z,24.70
2018-05-09T02:01:23.675Z,25.30
2018-05-09T02:03:54.386Z,27.75
2018-05-09T02:06:24.144Z,26.73
2018-05-09T02:08:53.849Z,27.57
2018-05-09T02:11:23.548Z,27.85
2018-05-09T02:13:54.039Z,26.90
2018-05-09T02:16:23.775Z,25.20
2018-05-09T02:18:54.283Z,26.53
2018-05-09T02:21:24.040Z,26.33
2018-05-09T02:23:54.985Z,26.27
2018-05-09T02:26:24.739Z,26.30
2018-05-09T02:28:54.474Z,27.67
2018-05-09T02:31:24.980Z,26.60
2018-05-09T02:33:54.684Z,25.53
2018-05-09T02:36:24.429Z,25.20
2018-05-09T02:38:54.936Z,27.33
2018-05-09T02:41:24.688Z,26.13
2018-05-09T02:43:54.403Z,26.27
2018-05-09T02:46:24.159Z,25.40
2018-05-09T02:48:53.902Z,23.13
2018-05-09T02:51:24.404Z,23.70
2018-05-09T02:53:54.143Z,24.13
2018-05-09T02:56:24.740Z,21.97
2018-05-09T02:58:55.411Z,24.13
2018-05-09T03:01:25.164Z,25.57
2018-05-09T03:03:54.906Z,27.03
2018-05-09T03:06:25.436Z,25.60
2018-05-09T03:08:55.959Z,27.43
2018-05-09T03:11:26.502Z,23.03
2018-05-09T03:13:57.025Z,22.83
2018-05-09T03:16:27.513Z,26.30
2018-05-09T03:18:57.341Z,25.40
2018-05-09T03:21:27.978Z,26.70
2018-05-09T03:23:57.711Z,26.30
2018-05-09T03:26:28.392Z,24.80
2018-05-09T03:28:58.162Z,24.25
2018-05-09T03:31:28.661Z,25.63
2018-05-09T03:33:58.884Z,24.70
2018-05-09T03:36:28.650Z,22.70
2018-05-09T03:38:58.373Z,25.10
2018-05-09T03:41:28.296Z,26.03
2018-05-09T03:43:58.087Z,24.42
2018-05-09T03:46:27.807Z,24.65
2018-05-09T03:48:57.574Z,24.20
2018-05-09T03:51:28.099Z,24.20
2018-05-09T03:53:58.791Z,25.33
2018-05-09T03:56:28.522Z,25.70
2018-05-09T03:58:58.256Z,28.08
2018-05-09T04:01:29.120Z,27.90
2018-05-09T04:04:10.040Z,23.20
2018-05-09T04:09:49.347Z,18.77
2018-05-09T04:12:19.072Z,20.57
2018-05-09T04:14:49.136Z,19.50
2018-05-09T04:17:18.982Z,20.37
2018-05-09T04:19:48.932Z,20.43
2018-05-09T04:22:18.666Z,19.80
2018-05-09T04:24:48.414Z,19.13
2018-05-09T04:27:18.150Z,19.20
2018-05-09T04:29:48.919Z,19.60
2018-05-09T04:32:18.681Z,19.50
2018-05-09T04:34:48.506Z,20.07
2018-05-09T04:37:18.251Z,20.67
2018-05-09T04:39:48.115Z,20.00
2018-05-09T04:42:17.950Z,20.23
2018-05-09T04:44:47.659Z,19.87
2018-05-09T04:47:17.421Z,20.63
2018-05-09T04:49:47.980Z,21.00
2018-05-09T04:52:17.730Z,21.40
2018-05-09T04:54:48.107Z,21.87
2018-05-09T04:57:17.826Z,20.83
2018-05-09T04:59:47.532Z,21.37
2018-05-09T05:02:17.253Z,20.63
2018-05-09T05:04:48.432Z,20.10
2018-05-09T05:07:18.174Z,21.70
2018-05-09T05:09:48.709Z,21.70
2018-05-09T05:12:18.463Z,22.47
2018-05-09T05:14:48.211Z,21.70
2018-05-09T05:17:18.733Z,23.57
2018-05-09T05:19:49.338Z,22.67
2018-05-09T05:22:19.085Z,21.43
2018-05-09T05:24:49.741Z,24.50
2018-05-09T05:27:19.507Z,21.30
2018-05-09T05:29:49.278Z,18.20
2018-05-09T05:32:19.026Z,19.30
2018-05-09T05:34:49.795Z,17.80
2018-05-09T05:37:20.322Z,16.50
2018-05-09T05:39:51.740Z,14.53
2018-05-09T05:42:23.990Z,17.00
2018-05-09T05:44:53.780Z,16.53
2018-05-09T05:47:23.645Z,18.17
2018-05-09T05:49:54.316Z,17.60
2018-05-09T05:52:25.053Z,15.97
2018-05-09T05:54:55.168Z,16.40
2018-05-09T05:57:24.991Z,15.47
2018-05-09T05:59:54.710Z,15.90
2018-05-09T06:02:24.442Z,16.97
2018-05-09T06:04:54.190Z,16.60
2018-05-09T06:07:24.714Z,15.90
2018-05-09T06:09:55.444Z,15.40
2018-05-09T06:12:25.199Z,15.40
2018-05-09T06:14:54.966Z,15.47
2018-05-09T06:17:24.717Z,16.27
2018-05-09T06:19:54.477Z,16.50
2018-05-09T06:22:24.290Z,16.60
2018-05-09T06:24:54.713Z,16.83
2018-05-09T06:27:24.956Z,15.53
2018-05-09T06:29:55.465Z,16.33
2018-05-09T06:32:25.223Z,14.30
2018-05-09T06:34:55.742Z,14.00
2018-05-09T06:37:25.667Z,14.80
2018-05-09T06:39:55.412Z,15.10
2018-05-09T06:42:25.155Z,14.10
2018-05-09T06:44:55.688Z,15.10
2018-05-09T06:47:25.543Z,15.10
2018-05-09T06:49:56.162Z,14.80
2018-05-09T06:52:25.971Z,14.50
2018-05-09T06:54:55.734Z,16.10
2018-05-09T06:57:25.487Z,15.87
2018-05-09T06:59:55.283Z,17.30
2018-05-09T07:02:25.778Z,16.40
2018-05-09T07:04:55.544Z,15.80
2018-05-09T07:07:25.288Z,16.10
2018-05-09T07:09:54.997Z,13.93
2018-05-09T07:12:24.969Z,15.17
2018-05-09T07:14:54.729Z,14.73
2018-05-09T07:17:25.067Z,15.80
2018-05-09T07:19:54.880Z,15.10
2018-05-09T07:22:24.607Z,14.80
2018-05-09T07:24:55.161Z,14.60
2018-05-09T07:27:24.884Z,14.63
2018-05-09T07:35:17.078Z,14.53
2018-05-09T07:37:46.857Z,15.53
2018-05-09T07:40:16.595Z,14.40
2018-05-09T07:42:46.382Z,16.83
2018-05-09T07:45:16.704Z,15.67
2018-05-09T07:47:46.546Z,15.40
2018-05-09T07:50:16.819Z,15.10
2018-05-09T07:52:47.412Z,15.40
2018-05-09T07:55:17.177Z,15.33
2018-05-09T07:57:46.933Z,16.67
2018-05-09T08:00:16.756Z,17.60
2018-05-09T08:02:46.531Z,17.20
2018-05-09T08:05:16.322Z,17.97
2018-05-09T08:07:46.140Z,17.20
2018-05-09T08:10:15.911Z,18.27
2018-05-09T08:12:46.434Z,17.90
2018-05-09T08:15:16.198Z,17.43
2018-05-09T08:17:45.986Z,17.67
2018-05-09T08:20:15.867Z,18.47
2018-05-09T08:22:45.775Z,18.20
2018-05-09T08:25:15.505Z,19.20
2018-05-09T08:27:46.196Z,20.83
2018-05-09T08:30:16.151Z,19.60
2018-05-09T08:32:46.700Z,20.17
2018-05-09T08:35:16.451Z,19.10
2018-05-09T08:37:46.732Z,19.27
2018-05-09T08:40:16.495Z,19.03
2018-05-09T08:42:46.273Z,17.90
2018-05-09T08:45:16.112Z,19.13
2018-05-09T08:47:45.869Z,18.73
2018-05-09T08:50:16.386Z,18.60
2018-05-09T08:52:46.921Z,18.80
2018-05-09T08:55:17.415Z,18.10
2018-05-09T08:57:47.357Z,17.47
2018-05-09T09:00:17.936Z,19.33
2018-05-09T09:02:47.719Z,17.10
2018-05-09T09:05:17.452Z,17.97
2018-05-09T09:07:47.196Z,17.30
2018-05-09T09:10:17.002Z,17.40
2018-05-09T09:12:47.003Z,16.00
2018-05-09T09:15:16.855Z,16.97
2018-05-09T09:17:47.384Z,17.10
2018-05-09T09:20:17.107Z,15.90
2018-05-09T09:22:47.640Z,16.00
2018-05-09T09:25:18.167Z,16.03
2018-05-09T09:27:48.695Z,16.03
2018-05-09T09:30:19.233Z,15.83
2018-05-09T09:32:49.735Z,15.57
2018-05-09T09:35:19.513Z,14.87
2018-05-09T09:37:49.271Z,13.50
2018-05-09T09:40:21.979Z,15.93
2018-05-09T09:42:51.778Z,15.40
2018-05-09T09:45:22.962Z,23.73
2018-05-09T09:47:52.706Z,25.30
2018-05-09T09:50:22.437Z,22.53
2018-05-09T09:52:54.817Z,21.93
2018-05-09T09:55:24.592Z,18.53
2018-05-09T09:57:54.379Z,18.77
2018-05-09T10:00:28.150Z,16.23
2018-05-09T10:02:57.978Z,16.20
2018-05-09T10:05:27.837Z,18.17
2018-05-09T10:07:57.655Z,25.57
2018-05-09T10:10:27.483Z,31.93
2018-05-09T10:12:58.027Z,31.60
2018-05-09T10:15:27.784Z,21.67
2018-05-09T10:17:57.521Z,25.23
2018-05-09T10:20:27.581Z,22.10
2018-05-09T10:22:59.127Z,21.77
2018-05-09T10:25:28.874Z,20.93
2018-05-09T10:27:58.659Z,19.57
2018-05-09T10:30:28.416Z,19.77
2018-05-09T10:32:58.173Z,19.27
2018-05-09T10:35:27.958Z,17.87
2018-05-09T10:37:58.462Z,17.80
2018-05-09T10:40:28.201Z,16.20
2018-05-09T10:42:58.731Z,17.50
2018-05-09T10:45:28.539Z,16.70
2018-05-09T10:47:59.044Z,18.77
2018-05-09T10:50:28.805Z,18.23
2018-05-09T10:52:58.587Z,19.37
2018-05-09T10:55:29.120Z,17.00
2018-05-09T10:57:59.628Z,18.77
2018-05-09T11:00:29.364Z,14.80
2018-05-09T11:02:59.892Z,12.43
2018-05-09T11:05:30.412Z,13.10
2018-05-09T11:08:00.921Z,13.07
2018-05-09T11:10:30.753Z,12.50
2018-05-09T11:13:01.264Z,11.30
2018-05-09T11:15:31.017Z,11.60
2018-05-09T11:18:00.758Z,10.67
2018-05-09T11:20:30.522Z,10.90
2018-05-09T11:23:00.229Z,11.70
2018-05-09T11:25:30.036Z,10.20
2018-05-09T11:28:00.551Z,11.07
2018-05-09T11:30:31.103Z,9.20
2018-05-09T11:33:02.304Z,10.03
2018-05-09T11:35:32.062Z,10.60
2018-05-09T11:38:01.845Z,10.87
2018-05-09T11:40:31.576Z,10.47
2018-05-09T11:43:02.229Z,10.87
2018-05-09T11:45:31.994Z,11.17
2018-05-09T11:48:01.778Z,11.20
2018-05-09T11:50:31.529Z,10.97
2018-05-09T11:53:02.070Z,10.20
2018-05-09T11:55:31.865Z,10.57
2018-05-09T11:58:02.384Z,10.43
2018-05-09T12:00:32.136Z,11.60
2018-05-09T12:03:01.864Z,10.00
2018-05-09T12:05:31.626Z,11.90
2018-05-09T12:08:02.166Z,11.50
2018-05-09T12:10:32.722Z,12.97
2018-05-09T12:13:02.482Z,11.50
2018-05-09T12:15:32.421Z,14.70
2018-05-09T12:18:03.063Z,13.57
2018-05-09T12:20:32.852Z,12.10
2018-05-09T12:23:02.598Z,12.73
2018-05-09T12:25:32.364Z,12.27
2018-05-09T12:28:03.134Z,11.23
2018-05-09T12:30:32.931Z,12.27
2018-05-09T12:33:03.459Z,11.33
2018-05-09T12:35:33.982Z,12.33
2018-05-09T12:38:04.515Z,12.17
2018-05-09T12:40:35.004Z,12.23
2018-05-09T12:43:04.766Z,12.47
2018-05-09T12:45:35.312Z,11.73
2018-05-09T12:48:05.063Z,13.50
2018-05-09T12:50:34.836Z,13.33
2018-05-09T12:53:04.601Z,13.37
2018-05-09T12:55:35.109Z,14.87
2018-05-09T12:58:04.871Z,12.30
2018-05-09T13:00:34.617Z,13.80
2018-05-09T13:03:04.417Z,14.50
2018-05-09T13:05:34.187Z,13.07
2018-05-09T13:08:05.909Z,12.30
2018-05-09T13:10:35.698Z,12.83
2018-05-09T13:13:05.515Z,12.90
2018-05-09T13:15:36.112Z,13.23
2018-05-09T13:18:06.646Z,12.83
2018-05-09T13:20:36.463Z,13.07
2018-05-09T13:23:06.248Z,13.67
2018-05-09T13:25:36.773Z,12.63
2018-05-09T13:28:07.311Z,13.37
2018-05-09T13:30:37.840Z,12.50
2018-05-09T13:33:08.377Z,13.93
2018-05-09T13:35:39.606Z,13.30
2018-05-09T13:38:10.164Z,13.97
2018-05-09T13:40:39.935Z,12.10
2018-05-09T13:43:09.785Z,13.70
2018-05-09T13:45:39.541Z,14.10
2018-05-09T13:48:09.286Z,13.53
2018-05-09T13:50:39.832Z,13.83
2018-05-09T13:53:11.516Z,14.30
2018-05-09T13:55:41.494Z,13.57
2018-05-09T13:58:11.325Z,14.90
2018-05-09T14:00:41.452Z,14.83
2018-05-09T14:03:12.066Z,13.10
2018-05-09T14:05:42.147Z,14.87
2018-05-09T14:08:12.006Z,14.23
2018-05-09T14:10:42.059Z,15.33
2018-05-09T14:13:12.080Z,14.03
2018-05-09T14:15:42.540Z,14.40
2018-05-09T14:18:12.874Z,14.07
2018-05-09T14:20:43.794Z,13.43
2018-05-09T14:23:13.686Z,12.67
2018-05-09T14:25:43.943Z,13.73
2018-05-09T14:28:14.713Z,12.80
2018-05-09T14:30:44.455Z,12.20
2018-05-09T14:33:16.681Z,11.70
2018-05-09T14:35:46.478Z,11.40
2018-05-09T14:38:17.079Z,11.50
2018-05-09T14:40:47.729Z,12.60
2018-05-09T14:43:18.306Z,11.97
2018-05-09T14:45:48.073Z,12.50
2018-05-09T14:48:18.287Z,11.80
2018-05-09T14:50:48.102Z,10.23
2018-05-09T14:53:18.828Z,11.90
2018-05-09T14:55:48.596Z,9.00
2018-05-09T14:58:18.336Z,9.00
2018-05-09T15:00:48.072Z,9.93
2018-05-09T15:03:19.765Z,9.43
2018-05-09T15:05:49.543Z,8.30
2018-05-09T15:08:20.047Z,9.47
2018-05-09T15:10:50.669Z,9.70
2018-05-09T15:13:20.418Z,11.20
2018-05-09T15:15:51.029Z,10.87
2018-05-09T15:18:23.062Z,11.57
2018-05-09T15:20:52.955Z,11.57
2018-05-09T15:23:23.588Z,12.87
2018-05-09T15:25:53.346Z,13.40
2018-05-09T15:28:23.860Z,12.50
2018-05-09T15:30:54.098Z,14.07
2018-05-09T15:33:23.902Z,13.37
2018-05-09T15:35:53.758Z,13.70
2018-05-09T15:38:23.766Z,16.47
2018-05-09T15:40:53.856Z,14.37
2018-05-09T15:43:23.684Z,13.37
2018-05-09T15:45:54.220Z,13.80
2018-05-09T15:48:24.733Z,13.90
2018-05-09T15:51:00.923Z,14.20
2018-05-09T15:53:30.685Z,13.30
2018-05-09T15:56:01.287Z,13.80
2018-05-09T15:58:31.072Z,15.47
2018-05-09T16:01:01.714Z,14.50
2018-05-09T16:03:31.499Z,15.50
2018-05-09T16:06:02.069Z,15.90
2018-05-09T16:08:34.613Z,14.80
2018-05-09T16:11:05.166Z,14.27
2018-05-09T16:13:34.877Z,14.90
2018-05-09T16:16:04.681Z,13.07
2018-05-09T16:18:35.635Z,13.03
2018-05-09T16:21:05.431Z,14.10
2018-05-09T16:23:35.173Z,14.80
2018-05-09T16:26:04.951Z,13.77
2018-05-09T16:28:34.912Z,12.20
2018-05-09T16:31:04.700Z,12.67
2018-05-09T16:33:34.453Z,11.90
2018-05-09T16:36:04.228Z,12.00
2018-05-09T16:38:34.027Z,11.73
2018-05-09T16:41:03.798Z,11.50
2018-05-09T16:43:34.379Z,12.60
2018-05-09T16:46:04.434Z,12.13
2018-05-09T16:48:34.238Z,11.23
2018-05-09T16:51:04.027Z,12.30
2018-05-09T16:53:33.795Z,12.30
2018-05-09T16:56:03.788Z,12.57
2018-05-09T16:58:36.062Z,13.77
2018-05-09T17:01:06.663Z,14.20
2018-05-09T17:03:36.436Z,13.20
2018-05-09T17:06:06.341Z,15.43
2018-05-09T17:08:37.266Z,14.17
2018-05-09T17:11:07.793Z,15.77
2018-05-09T17:13:38.318Z,15.60
2018-05-09T17:16:09.006Z,16.40
2018-05-09T17:18:38.776Z,14.83
2018-05-09T17:21:19.865Z,16.50
2018-05-09T17:23:50.511Z,16.00
2018-05-09T17:26:20.490Z,14.20
2018-05-09T17:28:51.531Z,16.73
2018-05-09T17:31:22.063Z,16.00
2018-05-09T17:33:52.603Z,18.20
2018-05-09T17:36:22.325Z,16.83
2018-05-09T17:38:52.081Z,16.60
2018-05-09T17:41:22.613Z,14.60
2018-05-09T17:43:52.381Z,15.20
2018-05-09T17:46:22.130Z,14.70
2018-05-09T17:48:51.907Z,16.23
2018-05-09T17:51:21.651Z,18.30
2018-05-09T17:53:51.425Z,17.83
2018-05-09T17:56:21.251Z,15.93
2018-05-09T17:58:51.043Z,14.30
2018-05-09T18:01:20.837Z,13.80
2018-05-09T18:03:51.383Z,14.47
2018-05-09T18:06:21.143Z,14.33
2018-05-09T18:08:50.919Z,13.60
2018-05-09T18:11:20.676Z,12.10
2018-05-09T18:13:50.405Z,10.87
2018-05-09T18:16:21.036Z,11.20
2018-05-09T18:18:51.700Z,10.60
2018-05-09T18:21:21.448Z,10.27
2018-05-09T18:23:51.205Z,12.03
2018-05-09T18:26:20.954Z,11.53
2018-05-09T18:28:50.719Z,11.50
2018-05-09T18:31:20.481Z,11.10
2018-05-09T18:33:51.042Z,11.03
2018-05-09T18:36:21.577Z,10.67
2018-05-09T18:38:52.106Z,9.70
2018-05-09T18:41:23.359Z,10.20
2018-05-09T18:43:53.107Z,9.63
2018-05-09T18:46:22.962Z,11.03
2018-05-09T18:48:53.473Z,10.50
2018-05-09T18:51:23.251Z,9.97
2018-05-09T18:53:53.878Z,9.27
2018-05-09T18:56:23.662Z,10.57
2018-05-09T18:58:53.426Z,9.80
2018-05-09T19:01:23.175Z,9.80
2018-05-09T19:03:54.552Z,10.90
2018-05-09T19:06:25.298Z,9.90
2018-05-09T19:08:55.066Z,10.47
2018-05-09T19:11:25.613Z,11.03
2018-05-09T19:13:55.420Z,11.20
2018-05-09T19:16:25.994Z,11.17
2018-05-09T19:18:55.870Z,11.13
2018-05-09T19:21:26.571Z,12.00
2018-05-09T19:23:56.319Z,10.33
2018-05-09T19:26:26.102Z,11.57
2018-05-09T19:28:56.607Z,10.60
2018-05-09T19:31:26.372Z,10.93
2018-05-09T19:33:56.147Z,10.90
2018-05-09T19:36:26.674Z,11.80
2018-05-09T19:38:56.410Z,11.97
2018-05-09T19:41:26.172Z,11.63
2018-05-09T19:43:55.935Z,10.63
2018-05-09T19:46:26.594Z,11.27
2018-05-09T19:48:56.308Z,10.87
2018-05-09T19:51:26.096Z,11.87
2018-05-09T19:53:55.825Z,12.10
2018-05-09T19:56:25.590Z,13.17
2018-05-09T19:58:56.594Z,12.20
2018-05-09T20:01:26.350Z,12.50
2018-05-09T20:03:56.895Z,11.70
2018-05-09T20:06:26.647Z,13.37
2018-05-09T20:08:56.390Z,12.17
2018-05-09T20:11:27.842Z,13.20
2018-05-09T20:13:59.430Z,12.70
2018-05-09T20:16:29.292Z,12.30
2018-05-09T20:18:59.942Z,10.70
2018-05-09T20:21:30.464Z,12.23
2018-05-09T20:24:00.985Z,12.70
2018-05-09T20:26:30.771Z,12.47
2018-05-09T20:29:03.499Z,11.17
2018-05-09T20:31:50.518Z,11.00
2018-05-09T20:34:20.267Z,10.40
2018-05-09T20:36:50.033Z,9.67
2018-05-09T20:39:20.578Z,10.37
2018-05-09T20:41:50.346Z,10.07
2018-05-09T20:44:20.071Z,11.10
2018-05-09T20:46:51.165Z,9.50
2018-05-09T20:49:23.109Z,9.32
2018-05-09T20:51:54.042Z,9.60
2018-05-09T20:54:23.817Z,9.53
2018-05-09T20:56:53.591Z,9.37
2018-05-09T20:59:23.500Z,9.40
2018-05-09T21:01:53.294Z,9.17
2018-05-09T21:04:23.090Z,9.30
2018-05-09T21:06:53.611Z,9.63
2018-05-09T21:09:24.167Z,10.77
2018-05-09T21:12:05.024Z,11.27
2018-05-09T21:14:34.917Z,10.70
2018-05-09T21:17:05.628Z,11.00
2018-05-09T21:19:35.394Z,10.93
2018-05-09T21:22:05.384Z,10.20
2018-05-09T21:24:35.992Z,9.10
2018-05-09T21:27:05.749Z,9.80
2018-05-09T21:29:35.575Z,9.47
2018-05-09T21:32:05.414Z,9.57
2018-05-09T21:34:35.186Z,9.53
2018-05-09T21:37:04.958Z,11.10
2018-05-09T21:39:35.662Z,9.40
2018-05-09T21:42:05.443Z,8.93
2018-05-09T21:44:35.169Z,10.07
2018-05-09T21:47:04.910Z,9.37
2018-05-09T21:49:35.146Z,9.00
2018-05-09T21:52:05.644Z,10.17
2018-05-09T21:54:35.386Z,10.20
2018-05-09T21:57:05.936Z,10.10
2018-05-09T21:59:36.549Z,10.47
2018-05-09T22:02:07.165Z,10.20
2018-05-09T22:04:36.984Z,10.50
2018-05-09T22:07:06.759Z,9.33
2018-05-09T22:09:36.515Z,10.23
2018-05-09T22:12:07.064Z,10.37
2018-05-09T22:14:36.818Z,11.40
2018-05-09T22:17:06.760Z,11.60
2018-05-09T22:19:37.859Z,12.10
2018-05-09T22:22:07.603Z,12.40
2018-05-09T22:24:37.404Z,13.07
2018-05-09T22:27:07.178Z,11.80
2018-05-09T22:29:36.943Z,12.47
2018-05-09T22:32:06.751Z,13.30
2018-05-09T22:34:37.316Z,13.80
2018-05-09T22:37:07.127Z,13.30
2018-05-09T22:39:38.433Z,12.40
2018-05-09T22:42:08.813Z,13.63
2018-05-09T22:44:39.597Z,13.20
2018-05-09T22:47:09.360Z,12.50
2018-05-09T22:49:39.145Z,12.67
2018-05-09T22:52:09.647Z,13.00
2018-05-09T22:54:39.586Z,11.77
2018-05-09T22:57:10.748Z,13.67
2018-05-09T22:59:41.103Z,12.50
2018-05-09T23:02:11.416Z,12.53
2018-05-09T23:04:41.154Z,13.93
2018-05-09T23:07:10.936Z,13.67
2018-05-09T23:09:40.668Z,14.90
2018-05-09T23:12:10.417Z,16.17
2018-05-09T23:14:40.929Z,14.53
2018-05-09T23:17:10.814Z,14.30
2018-05-09T23:19:41.360Z,14.80
2018-05-09T23:22:12.126Z,13.90
2018-05-09T23:24:42.756Z,13.80
2018-05-09T23:27:13.268Z,13.83
2018-05-09T23:29:43.164Z,14.57
2018-05-09T23:32:12.927Z,14.10
2018-05-09T23:34:42.762Z,14.53
2018-05-09T23:37:12.533Z,13.30
2018-05-09T23:39:43.037Z,14.30
2018-05-09T23:42:12.804Z,13.83
2018-05-09T23:44:42.538Z,13.47
2018-05-09T23:47:12.392Z,13.53
2018-05-09T23:49:42.908Z,13.50
2018-05-09T23:52:12.750Z,12.23
2018-05-09T23:54:42.530Z,12.87
2018-05-09T23:57:12.282Z,12.27
2018-05-09T23:59:42.058Z,12.60
